Time;durP1;ratioP1;P1;durP2;ratioP2;P2;SDS_P1;SDS_P2;PMS_P1;PMS_P2;Temp;Humidity;BMP_temperature;BMP_pressure;BME280_temperature;BME280_humidity;BME280_pressure;Samples;Min_cycle;Max_cycle;Signal;HPM_P1;HPM_P2
2023/09/14 00:00:27;;;;;;;0.30;0.30;;;;;;;;;;5100990;28;20058;-75
2023/09/14 00:02:53;;;;;;;1.23;1.13;;;;;;;;;;5102914;28;20444;-75
2023/09/14 00:05:19;;;;;;;0.30;0.30;;;;;;;;;;5094353;28;20074;-75
2023/09/14 00:07:45;;;;;;;0.40;0.40;;;;;;;;;;5107282;28;20046;-76
2023/09/14 00:10:11;;;;;;;0.40;0.40;;;;;;;;;;5104375;28;20101;-75
2023/09/14 00:12:37;;;;;;;0.47;0.47;;;;;;;;;;5097364;28;20056;-75
2023/09/14 00:15:03;;;;;;;;;;;;;;;;;;5104251;28;20035;-75
2023/09/14 00:17:29;;;;;;;0.30;0.30;;;;;;;;;;5100323;28;20582;-75
2023/09/14 00:19:55;;;;;;;0.20;0.20;;;;;;;;;;5097072;28;20048;-75
2023/09/14 00:22:21;;;;;;;0.40;0.40;;;;;;;;;;5102055;28;20079;-76
2023/09/14 00:24:47;;;;;;;;;;;;;;;;;;5101082;28;20210;-75
2023/09/14 00:27:14;;;;;;;0.55;0.55;;;;;;;;;;5099657;28;20010;-75
2023/09/14 00:29:39;;;;;;;;;;;;;;;;;;5106109;28;20062;-75
2023/09/14 00:32:06;;;;;;;0.30;0.30;;;;;;;;;;5101821;28;19935;-76
2023/09/14 00:34:32;;;;;;;0.30;0.30;;;;;;;;;;5094939;28;20081;-76
2023/09/14 00:36:58;;;;;;;;;;;;;;;;;;5094543;28;20475;-75
2023/09/14 00:39:24;;;;;;;0.40;0.40;;;;;;;;;;5096313;28;19928;-76
2023/09/14 00:41:50;;;;;;;;;;;;;;;;;;5099503;28;20127;-75
2023/09/14 00:44:16;;;;;;;0.30;0.30;;;;;;;;;;5103742;28;20014;-75
2023/09/14 00:46:42;;;;;;;;;;;;;;;;;;5103867;28;20466;-75
2023/09/14 00:49:08;;;;;;;0.40;0.40;;;;;;;;;;5099968;28;19930;-75
2023/09/14 00:51:34;;;;;;;;;;;;;;;;;;5102226;28;20076;-75
2023/09/14 00:54:00;;;;;;;0.38;0.38;;;;;;;;;;5097846;28;19974;-75
2023/09/14 00:56:26;;;;;;;;;;;;;;;;;;5100590;28;20040;-75
2023/09/14 00:58:54;;;;;;;0.40;0.40;;;;;;;;;;5105060;28;19992;-75
2023/09/14 01:01:20;;;;;;;0.30;0.30;;;;;;;;;;5102050;28;20118;-75
2023/09/14 01:03:46;;;;;;;;;;;;;;;;;;5099041;28;20108;-75
2023/09/14 01:06:18;;;;;;;0.30;0.30;;;;;;;;;;5102204;28;20396;-75
2023/09/14 01:08:44;;;;;;;0.40;0.40;;;;;;;;;;5106062;28;20047;-75
2023/09/14 01:11:10;;;;;;;0.30;0.30;;;;;;;;;;5102824;28;20373;-75
2023/09/14 01:13:41;;;;;;;0.30;0.30;;;;;;;;;;5099874;28;20161;-75
2023/09/14 01:16:11;;;;;;;0.82;0.60;;;;;;;;;;5106101;28;20083;-75
2023/09/14 01:18:42;;;;;;;0.25;0.25;;;;;;;;;;5098180;28;20446;-75
2023/09/14 01:21:29;;;;;;;0.30;0.30;;;;;;;;;;5103950;28;20059;-75
2023/09/14 01:24:01;;;;;;;0.30;0.30;;;;;;;;;;5098813;28;20617;-74
2023/09/14 01:26:28;;;;;;;0.30;0.30;;;;;;;;;;5104616;28;20301;-74
2023/09/14 01:28:54;;;;;;;0.30;0.30;;;;;;;;;;5101812;28;20166;-74
2023/09/14 01:31:20;;;;;;;;;;;;;;;;;;5104549;28;20043;-74
2023/09/14 01:33:48;;;;;;;0.30;0.30;;;;;;;;;;5102584;28;19926;-74
2023/09/14 01:36:29;;;;;;;0.38;0.38;;;;;;;;;;5096994;28;20498;-75
2023/09/14 01:38:55;;;;;;;0.30;0.30;;;;;;;;;;5105357;28;20097;-74
2023/09/14 01:41:21;;;;;;;0.40;0.40;;;;;;;;;;5102308;28;20086;-74
2023/09/14 01:43:50;;;;;;;0.40;0.40;;;;;;;;;;5104589;28;20068;-75
2023/09/14 01:46:16;;;;;;;0.40;0.40;;;;;;;;;;5106205;28;20043;-75
2023/09/14 01:48:43;;;;;;;0.30;0.30;;;;;;;;;;5099570;28;20047;-75
2023/09/14 01:51:09;;;;;;;;;;;;;;;;;;5104221;28;20470;-76
2023/09/14 01:53:35;;;;;;;0.40;0.40;;;;;;;;;;5105680;28;19928;-75
2023/09/14 01:56:01;;;;;;;;;;;;;;;;;;5101948;28;20454;-75
2023/09/14 01:58:27;;;;;;;0.30;0.30;;;;;;;;;;5101989;28;20050;-76
2023/09/14 02:00:53;;;;;;;0.40;0.40;;;;;;;;;;5100439;28;20054;-75
2023/09/14 02:03:19;;;;;;;0.40;0.40;;;;;;;;;;5104029;28;20039;-75
2023/09/14 02:05:45;;;;;;;0.30;0.30;;;;;;;;;;5103858;28;20054;-75
2023/09/14 02:08:11;;;;;;;0.30;0.30;;;;;;;;;;5099911;28;20063;-75
2023/09/14 02:10:37;;;;;;;0.30;0.30;;;;;;;;;;5104279;28;20052;-76
2023/09/14 02:13:03;;;;;;;0.40;0.40;;;;;;;;;;5101103;28;20055;-75
2023/09/14 02:15:29;;;;;;;0.30;0.30;;;;;;;;;;5101696;28;20039;-75
2023/09/14 02:17:55;;;;;;;0.30;0.30;;;;;;;;;;5101661;28;20062;-75
2023/09/14 02:20:21;;;;;;;0.38;0.38;;;;;;;;;;5099923;28;20172;-75
2023/09/14 02:22:48;;;;;;;0.40;0.40;;;;;;;;;;5105045;28;20129;-75
2023/09/14 02:25:14;;;;;;;0.30;0.30;;;;;;;;;;5102701;28;20126;-76
2023/09/14 02:27:40;;;;;;;0.40;0.40;;;;;;;;;;5100613;28;20660;-76
2023/09/14 02:30:06;;;;;;;0.30;0.30;;;;;;;;;;5105191;28;20043;-76
2023/09/14 02:32:32;;;;;;;0.30;0.30;;;;;;;;;;5102107;28;20044;-76
2023/09/14 02:34:58;;;;;;;0.40;0.40;;;;;;;;;;5103783;28;20055;-76
2023/09/14 02:37:24;;;;;;;0.30;0.30;;;;;;;;;;5104212;28;20044;-75
2023/09/14 02:39:51;;;;;;;0.40;0.40;;;;;;;;;;5089302;28;20051;-75
2023/09/14 02:42:17;;;;;;;0.40;0.40;;;;;;;;;;5103910;28;20054;-76
2023/09/14 02:44:43;;;;;;;0.40;0.40;;;;;;;;;;5106540;28;20435;-75
2023/09/14 02:47:09;;;;;;;0.35;0.35;;;;;;;;;;5105584;28;20048;-75
2023/09/14 02:49:35;;;;;;;0.30;0.30;;;;;;;;;;5105926;28;20058;-75
2023/09/14 02:52:02;;;;;;;0.40;0.40;;;;;;;;;;5104775;28;20070;-76
2023/09/14 02:54:28;;;;;;;0.40;0.40;;;;;;;;;;5105561;28;20055;-75
2023/09/14 02:56:53;;;;;;;;;;;;;;;;;;5106862;28;20541;-75
2023/09/14 02:59:20;;;;;;;0.30;0.30;;;;;;;;;;5102987;28;20014;-75
2023/09/14 03:01:46;;;;;;;0.30;0.30;;;;;;;;;;5105364;28;20054;-75
2023/09/14 03:04:12;;;;;;;;;;;;;;;;;;5105593;28;20043;-75
2023/09/14 03:06:38;;;;;;;0.30;0.30;;;;;;;;;;5106332;28;19934;-75
2023/09/14 03:09:04;;;;;;;0.30;0.30;;;;;;;;;;5103300;28;20074;-75
2023/09/14 03:11:30;;;;;;;0.30;0.30;;;;;;;;;;5105941;28;20051;-75
2023/09/14 03:13:57;;;;;;;0.25;0.25;;;;;;;;;;5105941;28;20048;-76
2023/09/14 03:16:23;;;;;;;0.25;0.25;;;;;;;;;;5107229;28;20739;-75
2023/09/14 03:18:49;;;;;;;;;;;;;;;;;;5100579;28;20074;-76
2023/09/14 03:21:25;;;;;;;0.30;0.30;;;;;;;;;;5108046;28;20281;-75
2023/09/14 03:23:57;;;;;;;0.30;0.30;;;;;;;;;;5105568;28;20054;-76
2023/09/14 03:26:23;;;;;;;;;;;;;;;;;;5107149;28;20456;-75
2023/09/14 03:28:50;;;;;;;0.30;0.30;;;;;;;;;;5104788;28;19967;-75
2023/09/14 03:31:16;;;;;;;0.32;0.32;;;;;;;;;;5106010;28;20047;-75
2023/09/14 03:33:43;;;;;;;0.40;0.40;;;;;;;;;;5103210;28;20051;-75
2023/09/14 03:36:10;;;;;;;0.50;0.50;;;11.30;99.90;;;;;;5107223;28;20097;-76
2023/09/14 03:38:35;;;;;;;0.38;0.38;;;11.20;99.90;;;;;;5101683;28;20119;-76
2023/09/14 03:41:01;;;;;;;0.40;0.40;;;11.20;99.90;;;;;;5102665;28;20052;-76
2023/09/14 03:43:27;;;;;;;0.40;0.40;;;11.10;99.90;;;;;;5103134;28;20062;-76
2023/09/14 03:45:52;;;;;;;0.40;0.40;;;11.10;99.90;;;;;;5108536;28;20031;-75
2023/09/14 03:48:18;;;;;;;0.40;0.40;;;11.00;99.90;;;;;;5102287;28;20055;-75
2023/09/14 03:50:44;;;;;;;0.35;0.35;;;10.90;99.90;;;;;;5101341;28;20048;-75
2023/09/14 03:53:10;;;;;;;0.35;0.35;;;10.80;99.90;;;;;;5104904;28;20102;-75
2023/09/14 03:55:36;;;;;;;0.40;0.40;;;10.70;99.90;;;;;;5102813;28;20458;-76
2023/09/14 03:58:02;;;;;;;0.38;0.38;;;10.60;99.90;;;;;;5102146;28;20043;-76
2023/09/14 04:00:28;;;;;;;0.40;0.40;;;10.50;99.90;;;;;;5103114;28;20074;-75
2023/09/14 04:02:54;;;;;;;0.40;0.40;;;10.40;99.90;;;;;;5104956;28;20044;-76
2023/09/14 04:05:20;;;;;;;0.43;0.43;;;10.30;99.90;;;;;;5106368;28;20040;-75
2023/09/14 04:07:46;;;;;;;0.40;0.40;;;10.20;99.90;;;;;;5105480;28;20036;-76
2023/09/14 04:10:12;;;;;;;0.30;0.30;;;11.00;99.90;;;;;;5106536;28;20073;-75
2023/09/14 04:12:40;;;;;;;0.40;0.40;;;10.00;99.90;;;;;;5101835;28;20109;-76
2023/09/14 04:15:06;;;;;;;0.32;0.32;;;9.90;99.90;;;;;;5106292;28;20051;-76
2023/09/14 04:17:33;;;;;;;0.32;0.32;;;9.80;99.90;;;;;;5102013;28;21119;-75
2023/09/14 04:19:58;;;;;;;;;;;9.70;99.90;;;;;;5103655;28;20059;-75
2023/09/14 04:22:24;;;;;;;0.47;0.47;;;9.60;99.90;;;;;;5102032;28;19924;-75
2023/09/14 04:24:50;;;;;;;0.60;0.60;;;9.60;99.90;;;;;;5102804;28;20048;-76
2023/09/14 04:27:16;;;;;;;0.50;0.50;;;9.50;99.90;;;;;;5101626;28;20036;-76
2023/09/14 04:29:42;;;;;;;0.50;0.50;;;9.40;99.90;;;;;;5104877;28;20100;-75
2023/09/14 04:32:08;;;;;;;0.50;0.50;;;9.30;99.90;;;;;;5103367;28;20055;-75
2023/09/14 04:34:33;;;;;;;0.45;0.45;;;9.20;99.90;;;;;;5104958;28;20767;-75
2023/09/14 04:36:59;;;;;;;0.50;0.50;;;9.20;99.90;;;;;;5102187;28;20047;-75
2023/09/14 04:39:25;;;;;;;0.40;0.40;;;9.10;99.90;;;;;;5105476;28;20048;-75
2023/09/14 04:41:51;;;;;;;0.40;0.40;;;9.10;99.90;;;;;;5101170;28;20051;-76
2023/09/14 04:44:17;;;;;;;0.50;0.50;;;9.10;99.90;;;;;;5103588;28;20080;-75
2023/09/14 04:46:42;;;;;;;0.40;0.40;;;9.00;99.90;;;;;;5102877;28;20116;-75
2023/09/14 04:49:08;;;;;;;0.60;0.60;;;9.00;99.90;;;;;;5102489;28;20039;-75
2023/09/14 04:51:34;;;;;;;0.50;0.50;;;9.00;99.90;;;;;;5104580;27;20044;-75
2023/09/14 04:53:59;;;;;;;0.38;0.38;;;9.00;99.90;;;;;;5102973;28;20047;-75
2023/09/14 04:56:25;;;;;;;0.43;0.43;;;8.90;99.90;;;;;;5094898;28;21130;-75
2023/09/14 04:58:51;;;;;;;0.40;0.40;;;9.00;99.90;;;;;;5100982;28;20048;-75
2023/09/14 05:01:17;;;;;;;0.60;0.60;;;9.00;99.90;;;;;;5101202;28;20044;-75
2023/09/14 05:03:43;;;;;;;0.50;0.50;;;9.00;99.90;;;;;;5096746;28;20051;-75
2023/09/14 05:06:09;;;;;;;0.50;0.50;;;9.00;99.90;;;;;;5101510;28;20150;-75
2023/09/14 05:08:34;;;;;;;0.40;0.40;;;9.00;99.90;;;;;;5099682;28;20089;-75
2023/09/14 05:11:01;;;;;;;0.45;0.45;;;9.00;99.90;;;;;;5105253;28;20048;-75
2023/09/14 05:13:27;;;;;;;0.52;0.52;;;9.00;99.90;;;;;;5101256;28;20188;-75
2023/09/14 05:15:52;;;;;;;0.30;0.30;;;9.00;99.90;;;;;;5100395;28;20103;-75
2023/09/14 05:18:18;;;;;;;0.50;0.50;;;9.00;99.90;;;;;;5106893;28;20382;-75
2023/09/14 05:20:46;;;;;;;0.50;0.50;;;8.90;99.90;;;;;;5099728;28;20078;-75
2023/09/14 05:23:12;;;;;;;0.47;0.47;;;9.00;99.90;;;;;;5103287;28;20129;-75
2023/09/14 05:25:39;;;;;;;0.47;0.47;;;8.90;99.90;;;;;;5104583;28;20130;-76
2023/09/14 05:28:05;;;;;;;0.30;0.30;;;8.90;99.90;;;;;;5103449;28;20086;-75
2023/09/14 05:30:32;;;;;;;0.40;0.40;;;9.00;99.90;;;;;;5105228;28;20043;-76
2023/09/14 05:32:58;;;;;;;0.50;0.50;;;9.00;99.90;;;;;;5104059;28;20078;-76
2023/09/14 05:35:23;;;;;;;0.40;0.40;;;9.00;99.90;;;;;;5103400;28;20063;-74
2023/09/14 05:37:50;;;;;;;0.50;0.50;;;9.10;99.90;;;;;;5103428;28;20047;-75
2023/09/14 05:40:16;;;;;;;0.40;0.40;;;9.10;99.90;;;;;;5099979;28;20061;-75
2023/09/14 05:42:42;;;;;;;0.40;0.40;;;9.10;99.90;;;;;;5099718;28;20045;-75
2023/09/14 05:45:09;;;;;;;0.50;0.50;;;9.20;99.90;;;;;;5104402;28;20051;-74
2023/09/14 05:47:36;;;;;;;0.40;0.40;;;9.30;99.90;;;;;;5100769;28;20154;-75
2023/09/14 05:50:03;;;;;;;0.40;0.40;;;9.30;99.90;;;;;;5096334;28;20414;-75
2023/09/14 05:52:30;;;;;;;0.40;0.40;;;9.40;99.90;;;;;;5096774;28;20117;-75
2023/09/14 05:55:03;;;;;;;0.40;0.40;;;9.40;99.90;;;;;;5101950;28;20413;-75
2023/09/14 05:57:30;;;;;;;0.52;0.52;;;9.50;99.90;;;;;;5102931;28;20051;-75
2023/09/14 05:59:57;;;;;;;0.30;0.30;;;9.60;99.90;;;;;;5101893;28;20059;-75
2023/09/14 06:02:23;;;;;;;0.40;0.40;;;9.60;99.90;;;;;;5100625;28;20040;-75
2023/09/14 06:04:48;;;;;;;0.50;0.50;;;9.60;99.90;;;;;;5103758;28;20043;-75
2023/09/14 06:07:14;;;;;;;0.50;0.50;;;9.70;99.90;;;;;;5104483;28;20043;-75
2023/09/14 06:09:40;;;;;;;0.40;0.40;;;9.70;99.90;;;;;;5100889;28;20044;-75
2023/09/14 06:12:06;;;;;;;0.40;0.40;;;9.80;99.90;;;;;;5103775;28;20043;-76
2023/09/14 06:14:33;;;;;;;;;;;9.80;99.90;;;;;;5105786;28;20048;-75
2023/09/14 06:16:59;;;;;;;0.40;0.40;;;9.90;99.90;;;;;;5107026;28;19923;-75
2023/09/14 06:19:25;;;;;;;0.45;0.45;;;9.90;99.90;;;;;;5104619;28;20051;-76
2023/09/14 06:21:51;;;;;;;0.43;0.43;;;10.00;99.90;;;;;;5107841;28;20043;-76
2023/09/14 06:24:17;;;;;;;0.35;0.35;;;10.10;99.90;;;;;;5108397;28;20100;-75
2023/09/14 06:26:44;;;;;;;0.45;0.45;;;10.10;99.90;;;;;;5105336;28;20058;-75
2023/09/14 06:29:13;;;;;;;;;;;10.20;99.90;;;;;;5106705;28;20079;-79
2023/09/14 06:31:40;;;;;;;0.50;0.50;;;10.80;99.90;;;;;;5103910;28;19927;-75
2023/09/14 06:34:08;;;;;;;0.50;0.50;;;10.40;99.90;;;;;;5105448;28;20059;-77
2023/09/14 06:36:34;;;;;;;0.50;0.50;;;10.50;99.90;;;;;;5106845;28;20039;-77
2023/09/14 06:39:01;;;;;;;0.52;0.52;;;10.60;99.90;;;;;;5103584;28;20044;-77
2023/09/14 06:41:26;;;;;;;;;;;10.70;99.90;;;;;;5106359;28;20047;-76
2023/09/14 06:43:55;;;;;;;0.40;0.40;;;10.90;99.90;;;;;;5106673;28;19927;-78
2023/09/14 06:46:21;;;;;;;0.30;0.30;;;11.00;99.90;;;;;;5105639;27;20051;-75
2023/09/14 06:48:47;;;;;;;0.40;0.40;;;11.10;99.90;;;;;;5106296;28;20081;-76
2023/09/14 06:51:12;;;;;;;0.40;0.40;;;11.20;99.90;;;;;;5107478;28;20089;-76
2023/09/14 06:53:38;;;;;;;0.40;0.40;;;11.30;99.90;;;;;;5100496;27;20048;-76
2023/09/14 06:56:10;;;;;;;0.40;0.40;;;11.40;99.90;;;;;;5099663;28;20039;-76
2023/09/14 06:58:37;;;;;;;0.40;0.40;;;11.50;99.90;;;;;;5094171;28;20051;-76
2023/09/14 07:01:03;;;;;;;;;;;11.70;99.90;;;;;;5097717;28;20040;-76
2023/09/14 07:03:33;;;;;;;1.85;1.70;;;11.80;99.90;;;;;;5105212;28;19920;-76
2023/09/14 07:05:58;;;;;;;0.40;0.40;;;12.00;99.90;;;;;;5102229;28;20054;-76
2023/09/14 07:08:25;;;;;;;0.38;0.38;;;12.30;99.90;;;;;;5104573;27;20048;-76
2023/09/14 07:10:50;;;;;;;0.98;0.98;;;12.40;99.90;;;;;;5109414;27;20046;-76
2023/09/14 07:13:17;;;;;;;0.30;0.30;;;12.60;99.90;;;;;;5106062;28;20051;-76
2023/09/14 07:15:43;;;;;;;0.30;0.30;;;12.70;99.90;;;;;;5107253;28;20043;-76
2023/09/14 07:18:11;;;;;;;0.30;0.30;;;12.80;99.90;;;;;;5102491;28;20052;-76
2023/09/14 07:20:37;;;;;;;0.38;0.38;;;12.90;99.90;;;;;;5107565;28;20250;-76
2023/09/14 07:23:02;;;;;;;0.32;0.32;;;13.00;99.90;;;;;;5104899;28;20127;-76
2023/09/14 07:25:28;;;;;;;0.65;0.65;;;13.10;99.90;;;;;;5109327;27;20134;-76
2023/09/14 07:27:54;;;;;;;0.30;0.30;;;13.30;99.90;;;;;;5104806;28;20065;-76
2023/09/14 07:30:20;;;;;;;0.28;0.28;;;13.40;99.90;;;;;;5100067;28;20528;-76
2023/09/14 07:32:45;;;;;;;0.68;0.68;;;13.50;99.90;;;;;;5105586;28;20046;-76
2023/09/14 07:35:12;;;;;;;0.30;0.30;;;13.60;99.90;;;;;;5104823;28;20035;-76
2023/09/14 07:37:38;;;;;;;0.20;0.20;;;13.80;99.90;;;;;;5103129;28;20074;-75
2023/09/14 07:40:05;;;;;;;;;;;13.80;99.90;;;;;;5111997;27;20054;-76
2023/09/14 07:42:30;;;;;;;0.40;0.40;;;14.00;99.90;;;;;;5110503;27;20006;-75
2023/09/14 07:44:56;;;;;;;0.57;0.57;;;14.10;99.90;;;;;;5105908;28;20174;-75
2023/09/14 07:47:28;;;;;;;;;;;14.20;99.90;;;;;;5100653;28;20039;-75
2023/09/14 07:49:54;;;;;;;0.30;0.30;;;14.30;99.90;;;;;;5106178;28;20483;-75
2023/09/14 07:52:19;;;;;;;0.30;0.30;;;14.40;99.90;;;;;;5103017;28;20048;-76
2023/09/14 07:54:45;;;;;;;0.30;0.30;;;14.50;99.90;;;;;;5098311;28;20659;-76
2023/09/14 07:57:11;;;;;;;0.30;0.30;;;14.60;99.90;;;;;;5101730;28;20048;-76
2023/09/14 07:59:36;;;;;;;0.20;0.20;;;14.80;99.90;;;;;;5098028;28;20485;-75
2023/09/14 08:02:02;;;;;;;0.30;0.30;;;15.00;99.90;;;;;;5084931;28;20493;-76
2023/09/14 08:04:28;;;;;;;0.30;0.30;;;15.10;99.90;;;;;;5097328;27;20143;-75
2023/09/14 08:06:53;;;;;;;;;;;15.10;99.90;;;;;;5102712;27;20036;-76
2023/09/14 08:09:19;;;;;;;0.40;0.40;;;15.00;99.90;;;;;;5099838;27;19924;-75
2023/09/14 08:11:45;;;;;;;0.30;0.30;;;15.00;99.90;;;;;;5097329;28;20039;-76
2023/09/14 08:14:10;;;;;;;0.50;0.50;;;15.00;99.90;;;;;;5102885;28;20450;-75
2023/09/14 08:16:36;;;;;;;0.30;0.30;;;15.00;99.90;;;;;;5105786;28;20059;-76
2023/09/14 08:19:03;;;;;;;;;;;15.00;99.90;;;;;;5101479;28;20055;-75
2023/09/14 08:21:29;;;;;;;0.40;0.40;;;15.20;99.90;;;;;;5106222;28;20006;-75
2023/09/14 08:23:55;;;;;;;;;;;15.30;99.90;;;;;;5107854;28;20118;-76
2023/09/14 08:26:21;;;;;;;0.40;0.40;;;15.50;99.90;;;;;;5096581;28;19920;-78
2023/09/14 08:28:46;;;;;;;;;;;15.60;99.90;;;;;;5095373;28;20482;-76
2023/09/14 08:31:12;;;;;;;0.25;0.25;;;15.70;99.90;;;;;;5090504;28;19966;-76
2023/09/14 08:33:37;;;;;;;;;;;15.90;99.90;;;;;;5103111;28;20048;-76
2023/09/14 08:36:03;;;;;;;0.30;0.30;;;16.00;99.90;;;;;;5097780;28;20691;-75
2023/09/14 08:38:29;;;;;;;;;;;16.00;99.90;;;;;;5098662;28;20058;-75
2023/09/14 08:41:00;;;;;;;0.20;0.20;;;16.00;99.90;;;;;;5102042;28;19998;-76
2023/09/14 08:43:30;;;;;;;0.30;0.30;;;16.00;99.90;;;;;;5102781;28;20051;-76
2023/09/14 08:46:00;;;;;;;0.28;0.28;;;16.00;99.90;;;;;;5097372;28;20059;-75
2023/09/14 08:48:30;;;;;;;0.28;0.28;;;16.00;99.90;;;;;;5093339;28;20431;-75
2023/09/14 08:50:58;;;;;;;0.40;0.40;;;16.10;99.90;;;;;;5102239;28;20044;-75
2023/09/14 08:53:24;;;;;;;0.32;0.32;;;16.10;99.90;;;;;;5101119;28;20510;-75
2023/09/14 08:55:54;;;;;;;0.30;0.30;;;16.20;99.90;;;;;;5100616;28;20036;-75
2023/09/14 08:58:20;;;;;;;1.08;1.08;;;16.40;99.90;;;;;;5099979;28;20697;-75
2023/09/14 09:00:48;;;;;;;0.30;0.30;;;16.50;99.90;;;;;;5105634;28;20237;-75
2023/09/14 09:03:13;;;;;;;0.20;0.20;;;16.70;99.90;;;;;;5099235;28;20104;-76
2023/09/14 09:05:41;;;;;;;;;;;16.80;99.90;;;;;;5103096;28;20043;-76
2023/09/14 09:08:07;;;;;;;;;;;17.00;99.90;;;;;;5101083;28;19967;-75
2023/09/14 09:10:32;;;;;;;0.38;0.38;;;17.10;99.90;;;;;;5098980;28;19967;-75
2023/09/14 09:12:59;;;;;;;;;;;17.20;99.90;;;;;;5102346;28;20058;-75
2023/09/14 09:15:26;;;;;;;0.30;0.30;;;17.40;99.90;;;;;;5104845;27;19923;-75
2023/09/14 09:18:04;;;;;;;0.30;0.30;;;17.40;99.90;;;;;;5097522;28;20512;-74
2023/09/14 09:20:30;;;;;;;0.28;0.28;;;17.60;99.90;;;;;;5100618;28;20044;-75
2023/09/14 09:22:59;;;;;;;;;;;17.60;99.90;;;;;;5096088;27;20047;-75
2023/09/14 09:25:26;;;;;;;0.20;0.20;;;17.80;99.90;;;;;;5095998;28;19977;-76
2023/09/14 09:27:59;;;;;;;0.30;0.30;;;17.90;99.90;;;;;;5097171;28;20383;-76
2023/09/14 09:30:35;;;;;;;0.57;0.57;;;18.10;99.90;;;;;;5100712;28;20176;-74
2023/09/14 09:33:01;;;;;;;0.20;0.20;;;;;;;;;;5099007;28;20048;-75
2023/09/14 09:35:29;;;;;;;0.45;0.45;;;;;;;;;;5093931;28;20544;-74
2023/09/14 09:37:57;;;;;;;1.60;0.77;;;;;;;;;;5097265;28;20394;-75
2023/09/14 09:40:33;;;;;;;0.20;0.20;;;;;;;;;;5103289;28;20043;-75
2023/09/14 09:43:07;;;;;;;0.20;0.20;;;;;;;;;;5100899;28;20058;-75
2023/09/14 09:45:33;;;;;;;0.77;0.77;;;;;;;;;;5100650;28;20055;-74
2023/09/14 09:48:02;;;;;;;0.30;0.30;;;;;;;;;;5104383;28;20419;-75
2023/09/14 09:50:29;;;;;;;0.45;0.45;;;19.30;99.90;;;;;;5102382;28;20051;-75
2023/09/14 09:52:54;;;;;;;0.20;0.20;;;18.90;99.90;;;;;;5098268;28;20043;-75
2023/09/14 09:55:25;;;;;;;0.30;0.30;;;19.30;99.90;;;;;;5100879;28;20054;-75
2023/09/14 09:57:59;;;;;;;0.30;0.30;;;19.30;99.90;;;;;;5101158;28;20048;-75
2023/09/14 10:00:29;;;;;;;0.30;0.30;;;19.30;99.90;;;;;;5102585;28;20035;-75
2023/09/14 10:02:55;;;;;;;0.20;0.20;;;19.30;99.90;;;;;;5101092;28;20050;-76
2023/09/14 10:05:39;;;;;;;0.40;0.40;;;19.40;99.90;;;;;;5098079;28;20047;-75
2023/09/14 10:08:12;;;;;;;0.25;0.25;;;19.50;99.90;;;;;;5104176;28;20402;-75
2023/09/14 10:10:38;;;;;;;0.30;0.30;;;19.40;99.90;;;;;;5099912;28;20070;-75
2023/09/14 10:13:05;;;;;;;0.50;0.50;;;19.40;99.90;;;;;;5097334;28;20040;-75
2023/09/14 10:15:32;;;;;;;0.20;0.20;;;19.50;99.90;;;;;;5104976;28;20039;-75
2023/09/14 10:17:58;;;;;;;0.38;0.38;;;19.60;99.90;;;;;;5102158;28;20143;-75
2023/09/14 10:20:25;;;;;;;0.30;0.30;;;19.70;99.90;;;;;;5104145;28;20123;-74
2023/09/14 10:22:52;;;;;;;0.25;0.25;;;19.70;99.90;;;;;;5105301;28;20074;-75
2023/09/14 10:25:23;;;;;;;0.30;0.30;;;19.70;99.90;;;;;;5116217;27;20062;-75
2023/09/14 10:27:49;;;;;;;0.28;0.28;;;19.80;99.90;;;;;;5098193;27;20040;-75
2023/09/14 10:30:18;;;;;;;;;;;19.90;99.90;;;;;;5102765;28;20046;-75
2023/09/14 10:32:48;;;;;;;0.20;0.20;;;20.10;99.90;;;;;;5100698;28;19927;-74
2023/09/14 10:35:14;;;;;;;0.45;0.40;;;20.20;99.90;;;;;;5106591;28;20051;-75
2023/09/14 10:37:44;;;;;;;0.32;0.32;;;20.30;99.90;;;;;;5106520;28;20048;-75
2023/09/14 10:40:14;;;;;;;0.32;0.32;;;20.20;99.90;;;;;;5100205;28;20052;-75
2023/09/14 10:42:41;;;;;;;0.30;0.30;;;20.00;99.90;;;;;;5100269;28;20039;-75
2023/09/14 10:45:08;;;;;;;0.20;0.20;;;19.70;99.90;;;;;;5099970;28;20143;-75
2023/09/14 10:47:37;;;;;;;0.30;0.30;;;19.60;99.90;;;;;;5103202;27;20426;-75
2023/09/14 10:50:04;;;;;;;0.30;0.30;;;19.40;99.90;;;;;;5101258;28;20588;-75
2023/09/14 10:52:30;;;;;;;0.45;0.45;;;19.20;99.90;;;;;;5098711;28;20150;-75
2023/09/14 10:54:56;;;;;;;0.20;0.20;;;19.00;99.90;;;;;;5097278;28;20122;-75
2023/09/14 10:57:25;;;;;;;0.22;0.22;;;18.70;99.90;;;;;;5098663;28;20063;-76
2023/09/14 10:59:58;;;;;;;0.22;0.22;;;18.50;99.90;;;;;;5098715;28;20044;-75
2023/09/14 11:02:39;;;;;;;0.20;0.20;;;18.50;99.90;;;;;;5105187;28;20051;-75
2023/09/14 11:05:25;;;;;;;0.30;0.30;;;18.50;99.90;;;;;;5100879;28;20125;-75
2023/09/14 11:08:10;;;;;;;0.30;0.30;;;18.60;99.90;;;;;;5100599;28;20549;-75
2023/09/14 11:10:39;;;;;;;0.30;0.30;;;18.70;99.90;;;;;;5097908;28;20055;-75
2023/09/14 11:13:25;;;;;;;0.68;0.65;;;18.60;99.90;;;;;;5092430;28;20040;-75
2023/09/14 11:16:16;;;;;;;0.40;0.40;;;18.40;99.90;;;;;;5096242;28;20512;-76
2023/09/14 11:18:45;;;;;;;0.20;0.20;;;18.40;99.90;;;;;;5099835;27;20481;-75
2023/09/14 11:21:32;;;;;;;0.60;0.60;;;18.40;99.90;;;;;;5100023;28;20115;-75
2023/09/14 11:24:05;;;;;;;0.50;0.50;;;18.70;99.90;;;;;;5095569;28;20886;-75
2023/09/14 11:26:37;;;;;;;0.30;0.30;;;18.90;99.90;;;;;;5099977;28;20157;-75
2023/09/14 11:29:05;;;;;;;0.40;0.40;;;19.10;99.90;;;;;;5095047;28;20126;-75
2023/09/14 11:31:32;;;;;;;0.20;0.20;;;19.30;99.90;;;;;;5105553;27;20438;-75
2023/09/14 11:33:58;;;;;;;0.32;0.32;;;19.30;99.90;;;;;;5103381;28;20051;-75
2023/09/14 11:36:31;;;;;;;0.20;0.20;;;19.20;99.90;;;;;;5106065;28;20036;-75
2023/09/14 11:38:57;;;;;;;0.30;0.30;;;19.10;99.90;;;;;;5113504;27;20170;-75
2023/09/14 11:41:41;;;;;;;1.10;0.60;;;19.10;99.90;;;;;;5097256;28;20470;-76
2023/09/14 11:44:07;;;;;;;0.20;0.20;;;19.30;99.90;;;;;;5098394;28;20050;-75
2023/09/14 11:46:35;;;;;;;0.30;0.30;;;19.20;99.90;;;;;;5099154;28;20458;-75
2023/09/14 11:49:02;;;;;;;0.47;0.47;;;19.10;99.90;;;;;;5098969;28;20363;-75
2023/09/14 11:51:28;;;;;;;0.20;0.20;;;19.00;99.90;;;;;;5096278;28;20043;-75
2023/09/14 11:53:59;;;;;;;0.70;0.70;;;18.90;99.90;;;;;;5103687;28;20083;-75
2023/09/14 11:56:26;;;;;;;0.20;0.20;;;18.80;99.90;;;;;;5100994;28;20544;-74
2023/09/14 11:58:53;;;;;;;0.85;0.85;;;18.80;99.90;;;;;;5100068;28;20444;-74
2023/09/14 12:01:19;;;;;;;0.22;0.22;;;18.80;99.90;;;;;;5100068;28;20108;-74
2023/09/14 12:03:45;;;;;;;0.30;0.30;;;18.70;99.90;;;;;;5104313;28;20039;-74
2023/09/14 12:06:12;;;;;;;0.30;0.30;;;18.70;99.90;;;;;;5114337;27;20392;-74
2023/09/14 12:08:48;;;;;;;0.20;0.20;;;18.90;99.90;;;;;;5101561;28;20058;-74
2023/09/14 12:11:15;;;;;;;0.28;0.28;;;19.20;99.90;;;;;;5109447;28;20054;-74
2023/09/14 12:13:50;;;;;;;1.33;0.90;;;19.40;99.90;;;;;;5107055;28;20112;-74
2023/09/14 12:16:21;;;;;;;0.30;0.30;;;19.30;99.90;;;;;;5110213;28;20051;-74
2023/09/14 12:18:48;;;;;;;0.45;0.45;;;19.30;99.90;;;;;;5098854;28;20078;-74
2023/09/14 12:21:15;;;;;;;0.65;0.63;;;19.20;99.90;;;;;;5098142;28;20048;-74
2023/09/14 12:23:44;;;;;;;0.47;0.47;;;19.10;99.90;;;;;;5102463;28;20047;-74
2023/09/14 12:26:13;;;;;;;0.50;0.50;;;19.10;99.90;;;;;;5107069;28;20046;-74
2023/09/14 12:28:41;;;;;;;0.20;0.20;;;19.20;99.90;;;;;;5102491;28;20115;-74
2023/09/14 12:31:07;;;;;;;0.20;0.20;;;19.20;99.90;;;;;;5100869;28;20264;-74
2023/09/14 12:33:33;;;;;;;0.40;0.40;;;19.30;99.90;;;;;;5104169;27;20044;-74
2023/09/14 12:35:59;;;;;;;0.30;0.30;;;19.60;99.90;;;;;;5098243;28;20051;-74
2023/09/14 12:38:25;;;;;;;1.77;0.93;;;19.70;99.90;;;;;;5104705;28;20085;-74
2023/09/14 12:40:52;;;;;;;0.20;0.20;;;19.80;99.90;;;;;;5104780;28;20039;-75
2023/09/14 12:43:18;;;;;;;0.20;0.20;;;20.20;99.90;;;;;;5100285;28;20073;-74
2023/09/14 12:45:44;;;;;;;1.20;0.95;;;20.50;99.90;;;;;;5105088;28;20409;-74
2023/09/14 12:48:09;;;;;;;0.20;0.20;;;20.80;99.90;;;;;;5102170;28;20040;-74
2023/09/14 12:50:35;;;;;;;0.20;0.20;;;21.10;99.90;;;;;;5099364;27;20043;-73
2023/09/14 12:53:13;;;;;;;0.38;0.38;;;21.40;99.90;;;;;;5098041;28;20075;-74
2023/09/14 12:55:46;;;;;;;0.32;0.32;;;21.60;99.90;;;;;;5100539;28;20040;-74
2023/09/14 12:58:17;;;;;;;0.30;0.30;;;21.60;99.90;;;;;;5099463;28;20055;-75
2023/09/14 13:00:45;;;;;;;0.38;0.38;;;21.60;99.90;;;;;;5095939;28;20629;-75
2023/09/14 13:03:13;;;;;;;1.35;0.73;;;21.70;99.90;;;;;;5102430;28;20072;-75
2023/09/14 13:05:39;;;;;;;0.22;0.22;;;21.80;99.90;;;;;;5101874;28;20054;-74
2023/09/14 13:08:06;;;;;;;0.20;0.20;;;21.70;99.90;;;;;;5100741;28;20051;-75
2023/09/14 13:10:35;;;;;;;0.32;0.32;;;21.50;99.90;;;;;;5096254;28;20101;-75
2023/09/14 13:13:00;;;;;;;0.20;0.20;;;21.40;99.90;;;;;;5101315;28;20079;-75
2023/09/14 13:15:28;;;;;;;0.28;0.28;;;21.20;99.90;;;;;;5099234;28;20573;-76
2023/09/14 13:17:59;;;;;;;0.82;0.82;;;21.20;99.90;;;;;;5115432;27;20047;-75
2023/09/14 13:20:30;;;;;;;0.63;0.63;;;21.00;99.90;;;;;;5101807;28;20143;-75
2023/09/14 13:22:57;;;;;;;0.68;0.68;;;21.10;99.90;;;;;;5104295;28;20061;-74
2023/09/14 13:25:26;;;;;;;0.30;0.30;;;21.40;99.90;;;;;;5102698;28;20035;-75
2023/09/14 13:27:58;;;;;;;1.88;0.85;;;21.60;99.90;;;;;;5095099;28;20117;-75